Time,TemperatureF,DewpointF,PressureIn,WindDirection,WindDirectionDegrees,WindSpeedMPH,WindSpeedGustMPH,Humidity,HourlyPrecipIn,Conditions,Clouds,dailyrainin,SoftwareType,DateUTC
2013-04-13 00:00:00,36.2,34.4,29.71,WSW,248,8.0,11.0,93,0.00,,,0.94,VWS V13.01,2013-04-13 04:00:00,
2013-04-13 00:05:00,36.1,34.3,29.71,WSW,247,9.0,11.0,93,0.00,,,0.00,VWS V13.01,2013-04-13 04:05:00,
2013-04-13 00:10:00,36.0,33.9,29.71,WSW,241,4.0,11.0,92,0.00,,,0.00,VWS V13.01,2013-04-13 04:10:00,
2013-04-13 00:15:00,35.9,33.8,29.71,WSW,251,6.0,9.0,92,0.00,,,0.00,VWS V13.01,2013-04-13 04:15:00,
2013-04-13 00:20:00,35.8,33.7,29.72,West,259,5.0,13.0,92,0.00,,,0.00,VWS V13.01,2013-04-13 04:20:00,
2013-04-13 00:25:00,35.7,33.6,29.72,West,263,5.0,12.0,92,0.00,,,0.00,VWS V13.01,2013-04-13 04:25:00,
2013-04-13 00:30:00,35.7,33.6,29.72,WSW,249,5.0,8.0,92,0.00,,,0.00,VWS V13.01,2013-04-13 04:30:00,
2013-04-13 00:35:00,35.6,33.5,29.72,West,263,7.0,9.0,92,0.00,,,0.00,VWS V13.01,2013-04-13 04:35:00,
2013-04-13 00:40:00,35.5,33.4,29.72,WSW,254,4.0,10.0,92,0.00,,,0.00,VWS V13.01,2013-04-13 04:40:00,
2013-04-13 00:45:00,35.5,33.4,29.72,WSW,256,9.0,11.0,92,0.00,,,0.00,VWS V13.01,2013-04-13 04:45:00,
2013-04-13 00:50:00,35.5,33.4,29.73,West,266,11.0,14.0,92,0.00,,,0.00,VWS V13.01,2013-04-13 04:50:00,
2013-04-13 00:55:00,35.4,33.0,29.73,WSW,251,9.0,13.0,91,0.00,,,0.00,VWS V13.01,2013-04-13 04:55:00,
2013-04-13 01:00:00,35.4,33.0,29.73,West,269,5.0,10.0,91,0.00,,OVC005,0.00,VWS V13.01,2013-04-13 05:00:00,
2013-04-13 01:05:00,35.3,32.9,29.73,WSW,244,6.0,12.0,91,0.00,,OVC005,0.00,VWS V13.01,2013-04-13 05:05:00,
2013-04-13 01:10:00,35.2,32.8,29.73,West,259,8.0,9.0,91,0.00,,OVC005,0.00,VWS V13.01,2013-04-13 05:10:00,
2013-04-13 01:15:00,35.2,33.1,29.73,West,275,6.0,9.0,92,0.00,,OVC005,0.00,VWS V13.01,2013-04-13 05:15:00,
2013-04-13 01:20:00,35.2,32.8,29.74,WSW,251,7.0,10.0,91,0.00,,OVC005,0.00,VWS V13.01,2013-04-13 05:20:00,
2013-04-13 01:25:00,35.1,33.0,29.74,West,261,3.0,8.0,92,0.00,,OVC005,0.00,VWS V13.01,2013-04-13 05:25:00,
2013-04-13 01:30:00,35.0,32.9,29.74,WSW,254,5.0,11.0,92,0.00,,OVC005,0.00,VWS V13.01,2013-04-13 05:30:00,
2013-04-13 01:35:00,34.9,32.8,29.74,WNW,287,7.0,7.0,92,0.00,,OVC005,0.00,VWS V13.01,2013-04-13 05:35:00,
2013-04-13 01:40:00,34.9,32.8,29.74,WSW,256,7.0,9.0,92,0.00,,OVC005,0.00,VWS V13.01,2013-04-13 05:40:00,
2013-04-13 01:45:00,34.9,32.8,29.74,West,263,6.0,9.0,92,0.00,,OVC005,0.00,VWS V13.01,2013-04-13 05:45:00,
2013-04-13 01:51:00,34.8,32.7,29.74,WSW,244,8.0,8.0,92,0.00,,OVC005,0.00,VWS V13.01,2013-04-13 05:51:00,
2013-04-13 01:56:00,34.8,32.5,29.74,WSW,248,7.0,11.0,91,0.00,,OVC005,0.00,VWS V13.01,2013-04-13 05:56:00,
2013-04-13 02:01:00,34.8,32.2,29.75,WSW,248,5.0,11.0,90,0.00,,,0.00,VWS V13.01,2013-04-13 06:01:00,
2013-04-13 02:06:00,34.7,31.8,29.75,West,261,6.0,9.0,89,0.00,,,0.00,VWS V13.01,2013-04-13 06:06:00,
2013-04-13 02:11:00,34.6,31.7,29.75,WSW,257,6.0,8.0,89,0.00,,,0.00,VWS V13.01,2013-04-13 06:11:00,
2013-04-13 02:16:00,34.5,31.6,29.75,NW,311,4.0,9.0,89,0.00,,,0.00,VWS V13.01,2013-04-13 06:16:00,
2013-04-13 02:21:00,34.4,31.2,29.75,West,277,3.0,11.0,88,0.00,,,0.00,VWS V13.01,2013-04-13 06:21:00,
2013-04-13 02:26:00,34.4,31.2,29.75,West,265,3.0,7.0,88,0.00,,,0.00,VWS V13.01,2013-04-13 06:26:00,
2013-04-13 02:32:00,34.3,31.1,29.75,WSW,257,4.0,6.0,88,0.00,,,0.00,VWS V13.01,2013-04-13 06:32:00,
2013-04-13 02:37:00,34.2,31.0,29.75,WSW,254,4.0,8.0,88,0.00,,,0.00,VWS V13.01,2013-04-13 06:37:00,
2013-04-13 02:42:00,34.2,31.0,29.75,NW,313,3.0,8.0,88,0.00,,,0.00,VWS V13.01,2013-04-13 06:42:00,
2013-04-13 02:47:00,34.1,30.9,29.75,NW,308,4.0,5.0,88,0.00,,,0.00,VWS V13.01,2013-04-13 06:47:00,
2013-04-13 02:52:00,34.1,31.2,29.75,WNW,284,3.0,6.0,89,0.00,,,0.00,VWS V13.01,2013-04-13 06:52:00,
2013-04-13 02:58:00,34.0,31.1,29.75,WSW,240,2.0,5.0,89,0.00,,,0.00,VWS V13.01,2013-04-13 06:58:00,
2013-04-13 03:03:00,34.0,30.8,29.75,WSW,257,2.0,6.0,88,0.00,,OVC010,0.00,VWS V13.01,2013-04-13 07:03:00,
2013-04-13 03:08:00,34.1,31.2,29.75,WSW,252,1.0,5.0,89,0.00,,OVC010,0.00,VWS V13.01,2013-04-13 07:08:00,
2013-04-13 03:13:00,34.1,31.2,29.75,WSW,247,4.0,5.0,89,0.00,,OVC010,0.00,VWS V13.01,2013-04-13 07:13:00,
2013-04-13 03:18:00,34.1,31.2,29.75,WSW,256,2.0,4.0,89,0.00,,OVC010,0.00,VWS V13.01,2013-04-13 07:18:00,
2013-04-13 03:23:00,34.2,31.6,29.75,WSW,241,3.0,5.0,90,0.00,,OVC010,0.00,VWS V13.01,2013-04-13 07:23:00,
2013-04-13 03:29:00,34.3,31.7,29.75,SW,233,4.0,7.0,90,0.00,,OVC010,0.00,VWS V13.01,2013-04-13 07:29:00,
2013-04-13 03:34:00,34.3,31.7,29.75,WSW,243,5.0,8.0,90,0.00,,OVC010,0.00,VWS V13.01,2013-04-13 07:34:00,
2013-04-13 03:39:00,34.3,32.0,29.75,WSW,244,6.0,7.0,91,0.00,,OVC010,0.00,VWS V13.01,2013-04-13 07:39:00,
2013-04-13 03:44:00,34.2,31.9,29.75,SW,235,5.0,7.0,91,0.00,,OVC010,0.00,VWS V13.01,2013-04-13 07:44:00,
2013-04-13 03:49:00,34.3,32.2,29.75,WSW,243,3.0,8.0,92,0.00,,OVC010,0.00,VWS V13.01,2013-04-13 07:49:00,
2013-04-13 03:54:00,34.2,31.9,29.75,WSW,242,6.0,9.0,91,0.00,,OVC010,0.00,VWS V13.01,2013-04-13 07:54:00,
2013-04-13 03:59:00,34.3,32.0,29.76,WSW,244,6.0,10.0,91,0.00,,OVC010,0.00,VWS V13.01,2013-04-13 07:59:00,
2013-04-13 04:04:00,34.2,31.9,29.76,SW,228,7.0,10.0,91,0.00,,OVC005,0.00,VWS V13.01,2013-04-13 08:04:00,
2013-04-13 04:09:00,34.3,32.2,29.76,WSW,248,8.0,11.0,92,0.00,,OVC005,0.00,VWS V13.01,2013-04-13 08:09:00,
2013-04-13 04:14:00,34.2,31.9,29.76,SW,227,6.0,10.0,91,0.00,,OVC005,0.00,VWS V13.01,2013-04-13 08:14:00,
2013-04-13 04:20:00,34.2,31.9,29.76,WSW,248,9.0,11.0,91,0.00,,OVC005,0.00,VWS V13.01,2013-04-13 08:20:00,
2013-04-13 04:25:00,34.2,31.9,29.76,WSW,246,8.0,10.0,91,0.00,,OVC005,0.00,VWS V13.01,2013-04-13 08:25:00,
2013-04-13 04:30:00,34.2,31.9,29.76,WSW,240,11.0,12.0,91,0.00,,OVC005,0.00,VWS V13.01,2013-04-13 08:30:00,
2013-04-13 04:35:00,34.1,31.8,29.77,WSW,242,8.0,12.0,91,0.00,,OVC005,0.00,VWS V13.01,2013-04-13 08:35:00,
2013-04-13 04:40:00,34.2,31.9,29.77,WSW,242,10.0,13.0,91,0.00,,OVC005,0.00,VWS V13.01,2013-04-13 08:40:00,
2013-04-13 04:45:00,34.1,31.8,29.77,WSW,247,8.0,13.0,91,0.00,,OVC005,0.00,VWS V13.01,2013-04-13 08:45:00,
2013-04-13 04:50:00,34.1,31.8,29.77,SW,233,9.0,11.0,91,0.00,,OVC005,0.00,VWS V13.01,2013-04-13 08:50:00,
2013-04-13 04:55:00,34.1,31.8,29.76,WSW,250,7.0,12.0,91,0.00,,OVC005,0.00,VWS V13.01,2013-04-13 08:55:00,
2013-04-13 05:00:00,34.1,31.8,29.76,WSW,249,6.0,10.0,91,0.00,,OVC005,0.00,VWS V13.01,2013-04-13 09:00:00,
2013-04-13 05:05:00,34.0,31.4,29.76,WSW,238,7.0,10.0,90,0.00,,OVC005,0.00,VWS V13.01,2013-04-13 09:05:00,
2013-04-13 05:11:00,34.0,31.6,29.76,WSW,244,6.0,11.0,91,0.00,,OVC005,0.00,VWS V13.01,2013-04-13 09:11:00,
2013-04-13 05:16:00,34.0,31.6,29.76,WSW,247,7.0,12.0,91,0.00,,OVC005,0.00,VWS V13.01,2013-04-13 09:16:00,
2013-04-13 05:22:00,34.0,31.6,29.76,WSW,254,10.0,11.0,91,0.00,,OVC005,0.00,VWS V13.01,2013-04-13 09:22:00,
2013-04-13 05:27:00,34.1,31.8,29.76,SW,234,8.0,11.0,91,0.00,,OVC005,0.00,VWS V13.01,2013-04-13 09:27:00,
2013-04-13 05:32:00,34.0,31.6,29.76,WSW,241,9.0,11.0,91,0.00,,OVC005,0.00,VWS V13.01,2013-04-13 09:32:00,
2013-04-13 05:37:00,33.9,31.6,29.76,West,259,4.0,12.0,91,0.00,,OVC005,0.00,VWS V13.01,2013-04-13 09:37:00,
2013-04-13 05:42:00,33.8,31.5,29.76,WSW,241,9.0,10.0,91,0.00,,OVC005,0.00,VWS V13.01,2013-04-13 09:42:00,
2013-04-13 05:47:00,33.8,31.5,29.77,WSW,240,7.0,10.0,91,0.00,,OVC005,0.00,VWS V13.01,2013-04-13 09:47:00,
2013-04-13 05:52:00,33.8,31.5,29.77,WSW,250,7.0,10.0,91,0.00,,OVC005,0.00,VWS V13.01,2013-04-13 09:52:00,
2013-04-13 05:57:00,33.8,31.2,29.76,WSW,249,6.0,10.0,90,0.00,,OVC005,0.00,VWS V13.01,2013-04-13 09:57:00,
2013-04-13 06:02:00,33.7,31.1,29.76,WSW,258,7.0,9.0,90,0.00,,,0.00,VWS V13.01,2013-04-13 10:02:00,
2013-04-13 06:07:00,33.6,31.0,29.76,West,270,4.0,8.0,90,0.00,,,0.00,VWS V13.01,2013-04-13 10:07:00,
2013-04-13 06:14:00,33.5,30.9,29.77,West,273,5.0,8.0,90,0.00,,,0.00,VWS V13.01,2013-04-13 10:14:00,
2013-04-13 06:19:00,33.6,31.0,29.77,WSW,248,7.0,9.0,90,0.00,,,0.00,VWS V13.01,2013-04-13 10:19:00,
2013-04-13 06:24:00,33.7,31.4,29.77,West,265,6.0,9.0,91,0.00,,,0.00,VWS V13.01,2013-04-13 10:24:00,
2013-04-13 06:29:00,33.6,31.3,29.77,WSW,246,8.0,8.0,91,0.00,,,0.00,VWS V13.01,2013-04-13 10:29:00,
2013-04-13 06:34:00,33.5,30.9,29.77,West,263,6.0,10.0,90,0.00,,,0.00,VWS V13.01,2013-04-13 10:34:00,
2013-04-13 06:39:00,33.5,30.9,29.77,WSW,256,4.0,9.0,90,0.00,,,0.00,VWS V13.01,2013-04-13 10:39:00,
2013-04-13 06:44:00,33.5,30.9,29.77,WSW,258,7.0,10.0,90,0.00,,,0.00,VWS V13.01,2013-04-13 10:44:00,
2013-04-13 06:49:00,33.5,30.9,29.77,WSW,252,6.0,9.0,90,0.00,,,0.00,VWS V13.01,2013-04-13 10:49:00,
2013-04-13 06:54:00,33.4,30.8,29.76,WSW,254,5.0,9.0,90,0.00,,,0.00,VWS V13.01,2013-04-13 10:54:00,
2013-04-13 06:59:00,33.4,30.8,29.76,WSW,247,6.0,9.0,90,0.00,,,0.00,VWS V13.01,2013-04-13 10:59:00,
2013-04-13 07:04:00,33.5,30.9,29.77,SW,232,9.0,9.0,90,0.00,,OVC013,0.00,VWS V13.01,2013-04-13 11:04:00,
2013-04-13 07:09:00,33.5,30.9,29.77,West,263,7.0,10.0,90,0.00,,OVC013,0.00,VWS V13.01,2013-04-13 11:09:00,
2013-04-13 07:15:00,33.5,30.9,29.76,WSW,258,8.0,9.0,90,0.00,,OVC013,0.00,VWS V13.01,2013-04-13 11:15:00,
2013-04-13 07:20:00,33.5,30.9,29.76,WSW,251,6.0,8.0,90,0.00,,OVC013,0.00,VWS V13.01,2013-04-13 11:20:00,
2013-04-13 07:25:00,33.4,30.8,29.77,WSW,249,7.0,9.0,90,0.00,,OVC013,0.00,VWS V13.01,2013-04-13 11:25:00,
2013-04-13 07:30:00,33.5,30.9,29.77,WSW,238,5.0,9.0,90,0.00,,OVC013,0.00,VWS V13.01,2013-04-13 11:30:00,
2013-04-13 07:35:00,33.5,30.9,29.77,West,265,5.0,9.0,90,0.00,,OVC013,0.00,VWS V13.01,2013-04-13 11:35:00,
2013-04-13 07:40:00,33.5,30.9,29.77,WSW,246,6.0,9.0,90,0.00,,OVC013,0.00,VWS V13.01,2013-04-13 11:40:00,
2013-04-13 07:45:00,33.5,30.9,29.77,WSW,248,6.0,9.0,90,0.00,,OVC013,0.00,VWS V13.01,2013-04-13 11:45:00,
2013-04-13 07:50:00,33.5,30.9,29.77,WSW,251,6.0,8.0,90,0.00,,OVC013,0.00,VWS V13.01,2013-04-13 11:50:00,
2013-04-13 07:56:00,33.5,30.9,29.77,WSW,258,4.0,9.0,90,0.00,,OVC013,0.00,VWS V13.01,2013-04-13 11:56:00,
2013-04-13 08:01:00,33.5,30.9,29.77,West,262,5.0,9.0,90,0.00,,OVC023,0.00,VWS V13.01,2013-04-13 12:01:00,
2013-04-13 08:06:00,33.6,31.0,29.77,West,262,1.0,10.0,90,0.00,,OVC023,0.00,VWS V13.01,2013-04-13 12:06:00,
2013-04-13 08:11:00,33.6,31.0,29.77,WSW,248,5.0,10.0,90,0.00,,OVC023,0.00,VWS V13.01,2013-04-13 12:11:00,
2013-04-13 08:17:00,33.7,31.1,29.77,West,261,6.0,9.0,90,0.00,,OVC023,0.00,VWS V13.01,2013-04-13 12:17:00,
2013-04-13 08:22:00,33.7,31.4,29.77,WSW,254,6.0,9.0,91,0.00,,OVC023,0.00,VWS V13.01,2013-04-13 12:22:00,
2013-04-13 08:27:00,33.7,31.1,29.77,West,260,5.0,7.0,90,0.00,,OVC023,0.00,VWS V13.01,2013-04-13 12:27:00,
2013-04-13 08:32:00,33.7,31.1,29.77,WSW,251,7.0,8.0,90,0.00,,OVC023,0.00,VWS V13.01,2013-04-13 12:32:00,
2013-04-13 08:37:00,33.7,31.1,29.77,West,259,6.0,9.0,90,0.00,,OVC023,0.00,VWS V13.01,2013-04-13 12:37:00,
2013-04-13 08:42:00,33.8,31.2,29.77,WSW,251,6.0,9.0,90,0.00,,OVC023,0.00,VWS V13.01,2013-04-13 12:42:00,
2013-04-13 08:47:00,33.8,31.2,29.77,WSW,258,8.0,8.0,90,0.00,,OVC023,0.00,VWS V13.01,2013-04-13 12:47:00,
2013-04-13 08:53:00,33.8,31.2,29.77,WSW,248,5.0,8.0,90,0.00,,OVC023,0.00,VWS V13.01,2013-04-13 12:53:00,
2013-04-13 08:58:00,33.9,31.3,29.77,West,269,5.0,9.0,90,0.00,,OVC023,0.00,VWS V13.01,2013-04-13 12:58:00,
2013-04-13 09:03:00,33.9,31.3,29.77,WSW,250,7.0,8.0,90,0.00,,OVC085,0.00,VWS V13.01,2013-04-13 13:03:00,
2013-04-13 09:08:00,34.0,31.4,29.77,West,261,4.0,9.0,90,0.00,,OVC085,0.00,VWS V13.01,2013-04-13 13:08:00,
2013-04-13 09:13:00,33.9,31.3,29.77,WSW,243,7.0,8.0,90,0.00,,OVC085,0.00,VWS V13.01,2013-04-13 13:13:00,
2013-04-13 09:18:00,33.9,31.3,29.77,SW,236,4.0,10.0,90,0.00,,OVC085,0.00,VWS V13.01,2013-04-13 13:18:00,
2013-04-13 09:24:00,34.0,31.6,29.77,WSW,244,6.0,7.0,91,0.00,,OVC085,0.00,VWS V13.01,2013-04-13 13:24:00,
2013-04-13 09:30:00,34.1,31.8,29.77,WSW,243,7.0,9.0,91,0.00,,OVC085,0.00,VWS V13.01,2013-04-13 13:30:00,
2013-04-13 09:35:00,34.1,31.5,29.77,WSW,251,9.0,9.0,90,0.00,,OVC085,0.00,VWS V13.01,2013-04-13 13:35:00,
2013-04-13 09:40:00,34.2,31.6,29.77,WSW,247,5.0,9.0,90,0.00,,OVC085,0.00,VWS V13.01,2013-04-13 13:40:00,
2013-04-13 09:45:00,34.2,31.3,29.77,WSW,248,6.0,10.0,89,0.00,,OVC085,0.00,VWS V13.01,2013-04-13 13:45:00,
2013-04-13 09:52:00,34.3,31.7,29.77,West,277,5.0,9.0,90,0.00,,OVC085,0.00,VWS V13.01,2013-04-13 13:52:00,
2013-04-13 09:57:00,34.4,31.8,29.77,WSW,246,6.0,8.0,90,0.00,,OVC085,0.00,VWS V13.01,2013-04-13 13:57:00,
2013-04-13 10:02:00,34.4,31.8,29.77,WSW,253,8.0,10.0,90,0.00,,OVC095,0.00,VWS V13.01,2013-04-13 14:02:00,
2013-04-13 10:07:00,34.4,31.8,29.77,West,261,9.0,10.0,90,0.00,,OVC095,0.00,VWS V13.01,2013-04-13 14:07:00,
2013-04-13 10:12:00,34.4,31.5,29.77,WSW,243,5.0,9.0,89,0.00,,OVC095,0.00,VWS V13.01,2013-04-13 14:12:00,
2013-04-13 10:17:00,34.4,31.8,29.77,WSW,248,6.0,9.0,90,0.00,,OVC095,0.00,VWS V13.01,2013-04-13 14:17:00,
2013-04-13 10:22:00,34.5,31.9,29.77,SW,221,7.0,9.0,90,0.00,,OVC095,0.00,VWS V13.01,2013-04-13 14:22:00,
2013-04-13 10:27:00,34.4,31.8,29.77,SW,227,6.0,7.0,90,0.00,,OVC095,0.00,VWS V13.01,2013-04-13 14:27:00,
2013-04-13 10:33:00,34.4,32.0,29.77,WSW,242,8.0,9.0,91,0.00,,OVC095,0.00,VWS V13.01,2013-04-13 14:33:00,
2013-04-13 10:38:00,34.4,32.0,29.77,SW,236,5.0,8.0,91,0.00,,OVC095,0.00,VWS V13.01,2013-04-13 14:38:00,
2013-04-13 10:44:00,34.4,32.0,29.77,SW,219,7.0,9.0,91,0.00,,OVC095,0.00,VWS V13.01,2013-04-13 14:44:00,
2013-04-13 10:49:00,34.5,32.4,29.77,SW,221,8.0,9.0,92,0.00,,OVC095,0.00,VWS V13.01,2013-04-13 14:49:00,
2013-04-13 10:54:00,34.4,32.3,29.77,SW,223,6.0,9.0,92,0.00,,OVC095,0.00,VWS V13.01,2013-04-13 14:54:00,
2013-04-13 10:59:00,34.5,32.4,29.77,SW,221,6.0,8.0,92,0.00,,OVC095,0.00,VWS V13.01,2013-04-13 14:59:00,
2013-04-13 11:04:00,34.6,32.5,29.77,SW,220,7.0,9.0,92,0.00,,,0.00,VWS V13.01,2013-04-13 15:04:00,
2013-04-13 11:09:00,34.7,32.6,29.77,WSW,240,9.0,10.0,92,0.00,,,0.00,VWS V13.01,2013-04-13 15:09:00,
2013-04-13 11:14:00,34.8,32.7,29.77,SW,234,6.0,9.0,92,0.00,,,0.00,VWS V13.01,2013-04-13 15:14:00,
2013-04-13 11:19:00,34.8,32.7,29.77,SW,236,7.0,10.0,92,0.00,,,0.00,VWS V13.01,2013-04-13 15:19:00,
2013-04-13 11:25:00,34.9,32.5,29.77,WSW,254,7.0,9.0,91,0.00,,,0.00,VWS V13.01,2013-04-13 15:25:00,
2013-04-13 11:30:00,35.0,32.9,29.77,SW,231,7.0,9.0,92,0.00,,,0.00,VWS V13.01,2013-04-13 15:30:00,
2013-04-13 11:35:00,35.1,33.0,29.77,WSW,243,8.0,10.0,92,0.00,,,0.00,VWS V13.01,2013-04-13 15:35:00,
2013-04-13 11:40:00,35.3,32.9,29.77,SW,231,7.0,10.0,91,0.00,,,0.00,VWS V13.01,2013-04-13 15:40:00,
2013-04-13 11:45:00,35.4,33.0,29.77,SSW,212,8.0,10.0,91,0.00,,,0.00,VWS V13.01,2013-04-13 15:45:00,
2013-04-13 11:50:00,35.6,33.2,29.78,SW,225,7.0,10.0,91,0.00,,,0.00,VWS V13.01,2013-04-13 15:50:00,
2013-04-13 11:55:00,35.7,33.3,29.78,SW,216,7.0,10.0,91,0.00,,,0.00,VWS V13.01,2013-04-13 15:55:00,
2013-04-13 12:00:00,35.9,33.5,29.78,WSW,238,8.0,10.0,91,0.00,,,0.00,VWS V13.01,2013-04-13 16:00:00,
2013-04-13 12:05:00,36.0,33.4,29.78,SW,229,7.0,10.0,90,0.00,,OVC050,0.00,VWS V13.01,2013-04-13 16:05:00,
2013-04-13 12:11:00,36.1,33.5,29.77,SW,234,7.0,9.0,90,0.00,,OVC050,0.00,VWS V13.01,2013-04-13 16:11:00,
2013-04-13 12:16:00,36.1,33.5,29.78,WSW,240,7.0,10.0,90,0.00,,OVC050,0.00,VWS V13.01,2013-04-13 16:16:00,
2013-04-13 12:21:00,36.2,33.0,29.77,SW,225,8.0,18.0,88,0.00,,OVC050,0.00,VWS V13.01,2013-04-13 16:21:00,
2013-04-13 12:26:00,36.4,33.5,29.77,WSW,241,9.0,12.0,89,0.00,,OVC050,0.00,VWS V13.01,2013-04-13 16:26:00,
2013-04-13 12:32:00,36.6,33.4,29.77,SW,231,8.0,12.0,88,0.00,,OVC050,0.00,VWS V13.01,2013-04-13 16:32:00,
2013-04-13 12:37:00,36.7,33.5,29.77,WSW,243,9.0,12.0,88,0.00,,OVC050,0.00,VWS V13.01,2013-04-13 16:37:00,
2013-04-13 12:42:00,36.8,33.3,29.77,SW,236,14.0,15.0,87,0.00,,OVC050,0.00,VWS V13.01,2013-04-13 16:42:00,
2013-04-13 12:47:00,37.0,33.5,29.77,SW,230,8.0,12.0,87,0.00,,OVC050,0.00,VWS V13.01,2013-04-13 16:47:00,
2013-04-13 12:52:00,37.1,33.6,29.77,SW,234,10.0,12.0,87,0.00,,OVC050,0.00,VWS V13.01,2013-04-13 16:52:00,
2013-04-13 12:57:00,37.1,33.3,29.77,WSW,241,11.0,14.0,86,0.00,,OVC050,0.00,VWS V13.01,2013-04-13 16:57:00,
2013-04-13 13:02:00,37.1,33.3,29.77,WSW,240,12.0,15.0,86,0.00,,,0.00,VWS V13.01,2013-04-13 17:02:00,
2013-04-13 13:07:00,37.3,33.2,29.77,SW,232,11.0,15.0,85,0.00,,,0.00,VWS V13.01,2013-04-13 17:07:00,
2013-04-13 13:12:00,37.5,33.4,29.77,SW,232,10.0,12.0,85,0.00,,,0.00,VWS V13.01,2013-04-13 17:12:00,
2013-04-13 13:18:00,37.7,33.3,29.77,WSW,237,12.0,15.0,84,0.00,,,0.00,VWS V13.01,2013-04-13 17:18:00,
2013-04-13 13:23:00,37.8,33.4,29.77,SW,233,11.0,17.0,84,0.00,,,0.00,VWS V13.01,2013-04-13 17:23:00,
2013-04-13 13:28:00,37.8,32.8,29.77,WSW,241,13.0,16.0,82,0.00,,,0.00,VWS V13.01,2013-04-13 17:28:00,
2013-04-13 13:33:00,38.0,33.0,29.77,WSW,252,12.0,15.0,82,0.00,,,0.00,VWS V13.01,2013-04-13 17:33:00,
2013-04-13 13:38:00,38.2,32.9,29.77,WSW,237,12.0,16.0,81,0.00,,,0.00,VWS V13.01,2013-04-13 17:38:00,
2013-04-13 13:43:00,38.1,32.8,29.77,SW,225,12.0,15.0,81,0.00,,,0.00,VWS V13.01,2013-04-13 17:43:00,
2013-04-13 13:48:00,38.1,33.1,29.77,WSW,240,11.0,16.0,82,0.00,,,0.00,VWS V13.01,2013-04-13 17:48:00,
2013-04-13 13:53:00,38.2,33.2,29.77,WSW,242,13.0,14.0,82,0.00,,,0.00,VWS V13.01,2013-04-13 17:53:00,
2013-04-13 13:59:00,38.7,32.4,29.77,SW,232,12.0,19.0,78,0.00,,,0.00,VWS V13.01,2013-04-13 17:59:00,
2013-04-13 14:04:00,38.6,33.0,29.77,SW,229,10.0,16.0,80,0.00,,OVC016,0.00,VWS V13.01,2013-04-13 18:04:00,
2013-04-13 14:09:00,38.3,32.7,29.77,SW,234,13.0,19.0,80,0.00,,OVC016,0.00,VWS V13.01,2013-04-13 18:09:00,
2013-04-13 14:14:00,38.2,32.6,29.77,WSW,250,12.0,22.0,80,0.00,,OVC016,0.00,VWS V13.01,2013-04-13 18:14:00,
2013-04-13 14:19:00,38.2,32.6,29.78,WSW,256,13.0,18.0,80,0.00,,OVC016,0.00,VWS V13.01,2013-04-13 18:19:00,
2013-04-13 14:25:00,38.2,32.6,29.78,WSW,246,15.0,17.0,80,0.00,,OVC016,0.00,VWS V13.01,2013-04-13 18:25:00,
2013-04-13 14:27:00,38.2,32.6,29.77,WSW,241,10.0,17.0,80,0.00,,OVC016,0.00,VWS V13.01,2013-04-13 18:27:00,
2013-04-13 14:28:00,38.2,32.9,29.77,WSW,258,11.0,16.0,81,0.00,,OVC016,0.00,VWS V13.01,2013-04-13 18:28:00,
2013-04-13 14:33:00,38.3,33.0,29.78,WSW,244,9.0,14.0,81,0.00,,OVC016,0.00,VWS V13.01,2013-04-13 18:33:00,
2013-04-13 14:38:00,38.1,32.5,29.78,WSW,246,12.0,17.0,80,0.00,,OVC016,0.00,VWS V13.01,2013-04-13 18:38:00,
2013-04-13 14:43:00,38.1,32.8,29.78,WSW,240,14.0,18.0,81,0.00,,OVC016,0.00,VWS V13.01,2013-04-13 18:43:00,
2013-04-13 14:48:00,37.9,32.3,29.78,West,259,16.0,21.0,80,0.00,,OVC016,0.00,VWS V13.01,2013-04-13 18:48:00,
2013-04-13 14:53:00,37.5,32.5,29.78,WSW,253,17.0,21.0,82,0.00,,OVC016,0.00,VWS V13.01,2013-04-13 18:53:00,
2013-04-13 14:58:00,37.2,32.8,29.79,West,265,12.0,19.0,84,0.00,,OVC016,0.00,VWS V13.01,2013-04-13 18:58:00,
2013-04-13 15:03:00,37.1,33.0,29.78,WSW,240,11.0,16.0,85,0.00,,-RA,0.00,VWS V13.01,2013-04-13 19:03:00,
2013-04-13 15:08:00,37.1,32.7,29.78,SW,231,14.0,16.0,84,0.00,,-RA,0.00,VWS V13.01,2013-04-13 19:08:00,
2013-04-13 15:13:00,37.2,33.1,29.79,WSW,251,14.0,15.0,85,0.00,,-RA,0.00,VWS V13.01,2013-04-13 19:13:00,
2013-04-13 15:18:00,37.3,32.9,29.79,SW,223,12.0,18.0,84,0.00,,-RA,0.00,VWS V13.01,2013-04-13 19:18:00,
2013-04-13 15:23:00,37.4,32.7,29.79,SW,234,15.0,20.0,83,0.00,,-RA,0.00,VWS V13.01,2013-04-13 19:23:00,
2013-04-13 15:28:00,37.4,32.7,29.79,WSW,238,12.0,15.0,83,0.00,,-RA,0.00,VWS V13.01,2013-04-13 19:28:00,
2013-04-13 15:33:00,37.5,32.8,29.79,SW,221,13.0,17.0,83,0.00,,-RA,0.00,VWS V13.01,2013-04-13 19:33:00,
2013-04-13 15:38:00,37.7,32.7,29.79,WSW,240,11.0,16.0,82,0.00,,-RA,0.00,VWS V13.01,2013-04-13 19:38:00,
2013-04-13 15:44:00,37.8,32.5,29.79,WSW,238,12.0,14.0,81,0.00,,-RA,0.00,VWS V13.01,2013-04-13 19:44:00,
2013-04-13 15:49:00,38.1,32.8,29.79,WSW,244,11.0,14.0,81,0.00,,-RA,0.00,VWS V13.01,2013-04-13 19:49:00,
2013-04-13 15:54:00,38.2,32.9,29.79,WSW,242,11.0,16.0,81,0.00,,-RA,0.00,VWS V13.01,2013-04-13 19:54:00,
2013-04-13 15:59:00,38.3,32.4,29.79,WSW,248,13.0,17.0,79,0.00,,-RA,0.00,VWS V13.01,2013-04-13 19:59:00,
2013-04-13 16:04:00,38.5,32.2,29.79,WSW,242,13.0,19.0,78,0.00,,,0.00,VWS V13.01,2013-04-13 20:04:00,
2013-04-13 16:09:00,38.7,32.4,29.79,WSW,257,14.0,19.0,78,0.00,,,0.00,VWS V13.01,2013-04-13 20:09:00,
2013-04-13 16:14:00,38.9,32.0,29.79,WSW,248,18.0,21.0,76,0.00,,,0.00,VWS V13.01,2013-04-13 20:14:00,
2013-04-13 16:19:00,38.9,32.0,29.79,WSW,246,12.0,19.0,76,0.00,,,0.00,VWS V13.01,2013-04-13 20:19:00,
2013-04-13 16:24:00,39.0,31.8,29.79,WSW,251,16.0,19.0,75,0.00,,,0.00,VWS V13.01,2013-04-13 20:24:00,
2013-04-13 16:29:00,39.3,31.4,29.79,WSW,237,17.0,19.0,73,0.00,,,0.00,VWS V13.01,2013-04-13 20:29:00,
2013-04-13 16:34:00,39.5,31.2,29.79,WSW,248,13.0,20.0,72,0.00,,,0.00,VWS V13.01,2013-04-13 20:34:00,
2013-04-13 16:39:00,39.8,31.2,29.79,WSW,247,15.0,20.0,71,0.00,,,0.00,VWS V13.01,2013-04-13 20:39:00,
2013-04-13 16:44:00,40.7,31.7,29.79,WSW,258,10.0,18.0,70,0.00,,,0.00,VWS V13.01,2013-04-13 20:44:00,
2013-04-13 16:49:00,41.0,30.5,29.79,West,261,8.0,16.0,66,0.00,,,0.00,VWS V13.01,2013-04-13 20:49:00,
2013-04-13 16:54:00,40.8,30.3,29.80,WSW,251,13.0,18.0,66,0.00,,,0.00,VWS V13.01,2013-04-13 20:54:00,
2013-04-13 16:59:00,40.6,30.1,29.80,WSW,247,11.0,20.0,66,0.00,,,0.00,VWS V13.01,2013-04-13 20:59:00,
2013-04-13 17:04:00,39.7,30.7,29.81,WSW,248,9.0,22.0,70,0.00,,OVC048,0.00,VWS V13.01,2013-04-13 21:04:00,
2013-04-13 17:09:00,39.2,29.9,29.81,WSW,242,14.0,23.0,69,0.00,,OVC048,0.00,VWS V13.01,2013-04-13 21:09:00,
2013-04-13 17:14:00,39.0,30.1,29.81,West,263,14.0,20.0,70,0.00,,OVC048,0.00,VWS V13.01,2013-04-13 21:14:00,
2013-04-13 17:19:00,38.8,29.9,29.81,WSW,248,20.0,23.0,70,0.00,,OVC048,0.00,VWS V13.01,2013-04-13 21:19:00,
2013-04-13 17:24:00,38.5,30.3,29.82,West,268,11.0,22.0,72,0.00,,OVC048,0.00,VWS V13.01,2013-04-13 21:24:00,
2013-04-13 17:29:00,38.3,30.1,29.82,West,274,8.0,16.0,72,0.00,,OVC048,0.00,VWS V13.01,2013-04-13 21:29:00,
2013-04-13 17:34:00,38.3,29.7,29.82,West,277,6.0,12.0,71,0.00,,OVC048,0.00,VWS V13.01,2013-04-13 21:34:00,
2013-04-13 17:39:00,38.3,29.7,29.82,West,264,6.0,14.0,71,0.00,,OVC048,0.00,VWS V13.01,2013-04-13 21:39:00,
2013-04-13 17:44:00,38.3,30.1,29.82,WSW,258,13.0,13.0,72,0.00,,OVC048,0.00,VWS V13.01,2013-04-13 21:44:00,
2013-04-13 17:49:00,38.3,29.7,29.83,West,264,7.0,13.0,71,0.00,,OVC048,0.00,VWS V13.01,2013-04-13 21:49:00,
2013-04-13 17:54:00,38.4,30.2,29.83,NW,323,7.0,11.0,72,0.00,,OVC048,0.00,VWS V13.01,2013-04-13 21:54:00,
2013-04-13 17:59:00,38.5,29.9,29.83,West,261,11.0,13.0,71,0.00,,OVC048,0.00,VWS V13.01,2013-04-13 21:59:00,
2013-04-13 18:04:00,38.6,29.7,29.83,WSW,244,6.0,13.0,70,0.00,,OVC055,0.00,VWS V13.01,2013-04-13 22:04:00,
2013-04-13 18:09:00,38.8,29.9,29.83,West,269,9.0,14.0,70,0.00,,OVC055,0.00,VWS V13.01,2013-04-13 22:09:00,
2013-04-13 18:14:00,38.8,29.2,29.84,West,261,10.0,14.0,68,0.00,,OVC055,0.00,VWS V13.01,2013-04-13 22:14:00,
2013-04-13 18:19:00,38.8,28.4,29.84,WSW,257,9.0,15.0,66,0.00,,OVC055,0.00,VWS V13.01,2013-04-13 22:19:00,
2013-04-13 18:24:00,38.8,28.8,29.84,West,261,9.0,16.0,67,0.00,,OVC055,0.00,VWS V13.01,2013-04-13 22:24:00,
2013-04-13 18:29:00,38.7,28.7,29.84,WNW,282,7.0,11.0,67,0.00,,OVC055,0.00,VWS V13.01,2013-04-13 22:29:00,
2013-04-13 18:34:00,38.6,27.9,29.85,West,280,3.0,12.0,65,0.00,,OVC055,0.00,VWS V13.01,2013-04-13 22:34:00,
2013-04-13 18:39:00,38.5,27.8,29.85,WNW,286,6.0,17.0,65,0.00,,OVC055,0.00,VWS V13.01,2013-04-13 22:39:00,
2013-04-13 18:44:00,38.4,27.7,29.85,NW,315,5.0,16.0,65,0.00,,OVC055,0.00,VWS V13.01,2013-04-13 22:44:00,
2013-04-13 18:49:00,38.2,27.1,29.86,WNW,285,9.0,18.0,64,0.00,,OVC055,0.00,VWS V13.01,2013-04-13 22:49:00,
2013-04-13 18:54:00,38.2,27.5,29.86,West,267,4.0,13.0,65,0.00,,OVC055,0.00,VWS V13.01,2013-04-13 22:54:00,
2013-04-13 18:59:00,38.0,28.4,29.86,WSW,242,15.0,20.0,68,0.00,,OVC055,0.00,VWS V13.01,2013-04-13 22:59:00,
2013-04-13 19:04:00,37.8,27.5,29.86,WSW,240,14.0,19.0,66,0.00,,BKN070,0.00,VWS V13.01,2013-04-13 23:04:00,
2013-04-13 19:10:00,37.6,26.9,29.87,WNW,284,10.0,21.0,65,0.00,,BKN070,0.00,VWS V13.01,2013-04-13 23:10:00,
2013-04-13 19:14:00,37.5,27.5,29.87,WNW,297,6.0,15.0,67,0.00,,BKN070,0.00,VWS V13.01,2013-04-13 23:14:00,
2013-04-13 19:19:00,37.3,27.0,29.87,WNW,292,5.0,15.0,66,0.00,,BKN070,0.00,VWS V13.01,2013-04-13 23:19:00,
2013-04-13 19:25:00,37.2,26.9,29.87,WSW,251,6.0,12.0,66,0.00,,BKN070,0.00,VWS V13.01,2013-04-13 23:25:00,
2013-04-13 19:30:00,37.1,26.8,29.87,WSW,242,3.0,16.0,66,0.00,,BKN070,0.00,VWS V13.01,2013-04-13 23:30:00,
2013-04-13 19:35:00,37.0,26.7,29.87,West,277,5.0,16.0,66,0.00,,BKN070,0.00,VWS V13.01,2013-04-13 23:35:00,
2013-04-13 19:40:00,36.9,26.6,29.87,WNW,282,5.0,10.0,66,0.00,,BKN070,0.00,VWS V13.01,2013-04-13 23:40:00,
2013-04-13 19:45:00,36.8,26.1,29.87,WNW,298,8.0,11.0,65,0.00,,BKN070,0.00,VWS V13.01,2013-04-13 23:45:00,
2013-04-13 19:50:00,36.6,26.3,29.88,West,273,6.0,11.0,66,0.00,,BKN070,0.00,VWS V13.01,2013-04-13 23:50:00,
2013-04-13 19:55:00,36.5,27.0,29.88,WNW,282,4.0,8.0,68,0.00,,BKN070,0.00,VWS V13.01,2013-04-13 23:55:00,
2013-04-13 20:00:00,36.5,27.0,29.88,West,267,5.0,10.0,68,0.00,,BKN070,0.00,VWS V13.01,2013-04-14 00:00:00,
2013-04-13 20:05:00,36.4,27.6,29.89,WSW,252,6.0,9.0,70,0.00,,OVC055,0.00,VWS V13.01,2013-04-14 00:05:00,
2013-04-13 20:10:00,36.4,27.6,29.89,West,259,8.0,10.0,70,0.00,,OVC055,0.00,VWS V13.01,2013-04-14 00:10:00,
2013-04-13 20:15:00,36.3,27.5,29.89,West,261,5.0,10.0,70,0.00,,OVC055,0.00,VWS V13.01,2013-04-14 00:15:00,
2013-04-13 20:20:00,36.1,27.3,29.89,WSW,250,8.0,8.0,70,0.00,,OVC055,0.00,VWS V13.01,2013-04-14 00:20:00,
2013-04-13 20:25:00,36.1,27.6,29.89,NW,304,2.0,11.0,71,0.00,,OVC055,0.00,VWS V13.01,2013-04-14 00:25:00,
2013-04-13 20:30:00,36.1,27.3,29.90,West,280,4.0,11.0,70,0.00,,OVC055,0.00,VWS V13.01,2013-04-14 00:30:00,
2013-04-13 20:35:00,36.0,27.2,29.90,WSW,254,8.0,11.0,70,0.00,,OVC055,0.00,VWS V13.01,2013-04-14 00:35:00,
2013-04-13 20:40:00,36.0,28.2,29.90,WSW,258,8.0,12.0,73,0.00,,OVC055,0.00,VWS V13.01,2013-04-14 00:40:00,
2013-04-13 20:45:00,36.0,28.2,29.90,WSW,249,7.0,11.0,73,0.00,,OVC055,0.00,VWS V13.01,2013-04-14 00:45:00,
2013-04-13 20:50:00,35.9,28.1,29.90,WSW,247,6.0,12.0,73,0.00,,OVC055,0.00,VWS V13.01,2013-04-14 00:50:00,
2013-04-13 20:55:00,35.8,28.7,29.91,West,261,7.0,11.0,75,0.00,,OVC055,0.00,VWS V13.01,2013-04-14 00:55:00,
2013-04-13 21:00:00,35.7,28.6,29.91,WSW,243,8.0,11.0,75,0.00,,OVC055,0.00,VWS V13.01,2013-04-14 01:00:00,
2013-04-13 21:05:00,35.7,28.9,29.91,WSW,240,8.0,12.0,76,0.00,,,0.00,VWS V13.01,2013-04-14 01:05:00,
2013-04-13 21:10:00,35.6,28.5,29.91,WSW,250,5.0,10.0,75,0.00,,,0.00,VWS V13.01,2013-04-14 01:10:00,
2013-04-13 21:15:00,35.6,28.5,29.91,WSW,248,8.0,12.0,75,0.00,,,0.00,VWS V13.01,2013-04-14 01:15:00,
2013-04-13 21:20:00,35.5,28.4,29.92,WSW,245,10.0,11.0,75,0.00,,,0.00,VWS V13.01,2013-04-14 01:20:00,
2013-04-13 21:25:00,35.6,28.8,29.92,West,267,7.0,14.0,76,0.00,,,0.00,VWS V13.01,2013-04-14 01:25:00,
2013-04-13 21:30:00,35.5,28.0,29.92,WSW,254,9.0,14.0,74,0.00,,,0.00,VWS V13.01,2013-04-14 01:30:00,
2013-04-13 21:35:00,35.4,28.3,29.92,WSW,250,9.0,11.0,75,0.00,,,0.00,VWS V13.01,2013-04-14 01:35:00,
2013-04-13 21:40:00,35.3,28.2,29.92,WSW,252,7.0,11.0,75,0.00,,,0.00,VWS V13.01,2013-04-14 01:40:00,
2013-04-13 21:45:00,35.3,28.2,29.93,West,269,8.0,13.0,75,0.00,,,0.00,VWS V13.01,2013-04-14 01:45:00,
2013-04-13 21:50:00,35.2,28.1,29.93,WSW,258,7.0,10.0,75,0.00,,,0.00,VWS V13.01,2013-04-14 01:50:00,
2013-04-13 21:55:00,35.2,28.4,29.93,West,259,10.0,12.0,76,0.00,,,0.00,VWS V13.01,2013-04-14 01:55:00,
2013-04-13 22:00:00,35.2,28.1,29.93,WSW,253,14.0,15.0,75,0.00,,,0.00,VWS V13.01,2013-04-14 02:00:00,
2013-04-13 22:05:00,35.2,28.7,29.93,WSW,254,6.0,12.0,77,0.00,,,0.00,VWS V13.01,2013-04-14 02:05:00,
2013-04-13 22:10:00,35.1,28.6,29.93,WSW,257,10.0,12.0,77,0.00,,,0.00,VWS V13.01,2013-04-14 02:10:00,
2013-04-13 22:15:00,35.0,28.2,29.93,WSW,245,9.0,12.0,76,0.00,,,0.00,VWS V13.01,2013-04-14 02:15:00,
2013-04-13 22:20:00,34.9,28.1,29.94,West,259,10.0,15.0,76,0.00,,,0.00,VWS V13.01,2013-04-14 02:20:00,
2013-04-13 22:25:00,34.8,28.3,29.94,West,261,9.0,12.0,77,0.00,,,0.00,VWS V13.01,2013-04-14 02:25:00,
2013-04-13 22:30:00,34.7,27.9,29.94,West,271,7.0,11.0,76,0.00,,,0.00,VWS V13.01,2013-04-14 02:30:00,
2013-04-13 22:35:00,34.6,28.1,29.94,WSW,257,8.0,8.0,77,0.00,,,0.00,VWS V13.01,2013-04-14 02:35:00,
2013-04-13 22:40:00,34.6,28.5,29.94,WSW,237,6.0,9.0,78,0.00,,,0.00,VWS V13.01,2013-04-14 02:40:00,
2013-04-13 22:45:00,34.4,28.3,29.95,WSW,253,4.0,8.0,78,0.00,,,0.00,VWS V13.01,2013-04-14 02:45:00,
2013-04-13 22:50:00,34.3,28.5,29.95,WSW,252,4.0,8.0,79,0.00,,,0.00,VWS V13.01,2013-04-14 02:50:00,
2013-04-13 22:55:00,34.3,28.8,29.95,West,270,6.0,8.0,80,0.00,,,0.00,VWS V13.01,2013-04-14 02:55:00,
2013-04-13 23:00:00,34.2,28.4,29.95,West,266,7.0,9.0,79,0.00,,BKN032,0.00,VWS V13.01,2013-04-14 03:00:00,
2013-04-13 23:05:00,34.1,28.3,29.95,WSW,257,5.0,10.0,79,0.00,,BKN032,0.00,VWS V13.01,2013-04-14 03:05:00,
2013-04-13 23:10:00,34.0,28.2,29.95,WSW,254,6.0,7.0,79,0.00,,BKN032,0.00,VWS V13.01,2013-04-14 03:10:00,
2013-04-13 23:15:00,33.9,27.8,29.95,WSW,242,6.0,7.0,78,0.00,,BKN032,0.00,VWS V13.01,2013-04-14 03:15:00,
2013-04-13 23:21:00,33.9,27.8,29.96,WSW,257,4.0,8.0,78,0.00,,BKN032,0.00,VWS V13.01,2013-04-14 03:21:00,
2013-04-13 23:26:00,33.6,27.5,29.95,WSW,249,7.0,9.0,78,0.00,,BKN032,0.00,VWS V13.01,2013-04-14 03:26:00,
2013-04-13 23:31:00,33.5,27.1,29.96,West,276,3.0,10.0,77,0.00,,BKN032,0.00,VWS V13.01,2013-04-14 03:31:00,
2013-04-13 23:36:00,33.4,27.0,29.96,WNW,292,4.0,9.0,77,0.00,,BKN032,0.00,VWS V13.01,2013-04-14 03:36:00,
2013-04-13 23:41:00,33.3,26.9,29.96,West,261,8.0,10.0,77,0.00,,BKN032,0.00,VWS V13.01,2013-04-14 03:41:00,
2013-04-13 23:46:00,33.3,27.5,29.97,West,261,5.0,11.0,79,0.00,,BKN032,0.00,VWS V13.01,2013-04-14 03:46:00,
2013-04-13 23:51:00,33.1,27.0,29.97,WSW,252,4.0,8.0,78,0.00,,BKN032,0.00,VWS V13.01,2013-04-14 03:51:00,
2013-04-13 23:56:00,33.1,27.0,29.97,West,265,7.0,10.0,78,0.00,,BKN032,0.00,VWS V13.01,2013-04-14 03:56:00,